Time;durP1;ratioP1;P1;durP2;ratioP2;P2;SDS_P1;SDS_P2;PMS_P1;PMS_P2;Temp;Humidity;BMP_temperature;BMP_pressure;BME280_temperature;BME280_humidity;BME280_pressure;Samples;Min_cycle;Max_cycle;Signal;HPM_P1;HPM_P2
2023/07/19 00:00:52;;;;;;;4.20;1.90;;;;;;;;;;5126339;27;20052;-73
2023/07/19 00:03:20;;;;;;;4.20;1.90;;;;;;;;;;5130070;27;20047;-73
2023/07/19 00:05:48;;;;;;;3.88;1.80;;;;;;;;;;5119108;27;20060;-74
2023/07/19 00:08:15;;;;;;;5.95;1.75;;;;;;;;;;5118886;27;20052;-74
2023/07/19 00:10:42;;;;;;;4.28;1.90;;;;;;;;;;5123278;27;20052;-73
2023/07/19 00:13:10;;;;;;;4.15;2.10;;;;;;;;;;5123115;27;20047;-74
2023/07/19 00:15:37;;;;;;;4.05;2.10;;;;;;;;;;5099117;27;20052;-74
2023/07/19 00:18:04;;;;;;;5.93;2.20;;;;;;;;;;5101856;27;20310;-73
2023/07/19 00:20:31;;;;;;;5.82;1.92;;;;;;;;;;5117776;27;20055;-74
2023/07/19 00:22:59;;;;;;;6.93;2.30;;;;;;;;;;5117835;27;20581;-73
2023/07/19 00:25:26;;;;;;;5.47;2.03;;;;;;;;;;5117180;27;20504;-74
2023/07/19 00:27:54;;;;;;;4.55;1.90;;;;;;;;;;5117193;27;20055;-74
2023/07/19 00:30:21;;;;;;;5.00;2.20;;;;;;;;;;5122725;27;20068;-74
2023/07/19 00:32:48;;;;;;;4.55;2.20;;;;;;;;;;5114255;27;20052;-75
2023/07/19 00:35:15;;;;;;;6.03;1.92;;;;;;;;;;5119390;27;20054;-74
2023/07/19 00:37:43;;;;;;;5.95;2.13;;;;;;;;;;5120718;27;20075;-74
2023/07/19 00:40:10;;;;;;;4.18;2.17;;;;;;;;;;5119206;27;20052;-74
2023/07/19 00:42:38;;;;;;;3.50;1.90;;;;;;;;;;5126161;27;20051;-74
2023/07/19 00:45:05;;;;;;;4.65;2.25;;;;;;;;;;5124286;27;20056;-75
2023/07/19 00:47:33;;;;;;;5.60;2.00;;;;;;;;;;5124130;27;20869;-74
2023/07/19 00:50:01;;;;;;;5.57;2.20;;;;;;;;;;5125533;27;20131;-74
2023/07/19 00:52:28;;;;;;;3.75;2.00;;;;;;;;;;5120714;27;20055;-74
2023/07/19 00:54:56;;;;;;;4.85;2.20;;;;;;;;;;5119201;27;20808;-74
2023/07/19 00:57:23;;;;;;;6.55;2.10;;;;;;;;;;5105137;27;20105;-74
2023/07/19 00:59:50;;;;;;;4.45;2.00;;;;;;;;;;5114951;27;20054;-74
2023/07/19 01:02:18;;;;;;;5.22;2.00;;;;;;;;;;5115128;27;20063;-74
2023/07/19 01:04:45;;;;;;;4.50;1.90;;;;;;;;;;5107955;27;20533;-74
2023/07/19 01:07:12;;;;;;;5.88;2.10;;;;;;;;;;5115803;27;20882;-74
2023/07/19 01:09:40;;;;;;;6.38;2.20;;;;;;;;;;5119633;27;20054;-74
2023/07/19 01:12:08;;;;;;;3.00;1.95;;;;;;;;;;5070572;27;20820;-74
2023/07/19 01:14:37;;;;;;;5.35;2.22;;;;;;;;;;5107505;27;20054;-74
2023/07/19 01:17:04;;;;;;;5.95;1.95;;;;;;;;;;5120557;27;20074;-74
2023/07/19 01:19:31;;;;;;;5.38;2.30;;;;;;;;;;5117700;27;20485;-74
2023/07/19 01:21:59;;;;;;;3.22;2.10;;;;;;;;;;5118628;27;21835;-74
2023/07/19 01:24:26;;;;;;;6.95;1.98;;;;;;;;;;5119607;27;20423;-74
2023/07/19 01:26:53;;;;;;;3.45;2.10;;;;;;;;;;5117082;27;20050;-74
2023/07/19 01:29:25;;;;;;;10.18;2.25;;;;;;;;;;5125839;27;20044;-74
2023/07/19 01:31:52;;;;;;;6.65;2.03;;;;;;;;;;5123611;27;20675;-74
2023/07/19 01:34:19;;;;;;;3.38;1.58;;;;;;;;;;5126083;27;20511;-74
2023/07/19 01:36:46;;;;;;;2.70;1.90;;;;;;;;;;5120004;27;20050;-74
2023/07/19 01:39:13;;;;;;;5.80;2.33;;;;;;;;;;5124486;27;20099;-74
2023/07/19 01:41:41;;;;;;;4.78;1.92;;;;;;;;;;5116702;27;20048;-73
2023/07/19 01:44:08;;;;;;;5.95;2.10;;;;;;;;;;5116565;27;21028;-74
2023/07/19 01:46:38;;;;;;;3.40;1.90;;;;;;;;;;5133219;27;20087;-74
2023/07/19 01:49:05;;;;;;;4.35;2.13;;;;;;;;;;5137275;27;20104;-74
2023/07/19 01:51:32;;;;;;;6.57;2.13;;;;;;;;;;5107392;27;20047;-74
2023/07/19 01:54:00;;;;;;;6.30;2.05;;;;;;;;;;5125377;27;20104;-74
2023/07/19 01:56:27;;;;;;;5.10;2.30;;;;;;;;;;5122886;27;20847;-74
2023/07/19 01:58:54;;;;;;;5.97;2.38;;;;;;;;;;5119781;27;20481;-74
2023/07/19 02:01:21;;;;;;;8.85;2.28;;;;;;;;;;5120456;27;20043;-74
2023/07/19 02:03:49;;;;;;;5.32;2.17;;;;;;;;;;5123017;27;20071;-73
2023/07/19 02:06:16;;;;;;;4.63;2.13;;;;;;;;;;5092903;27;20174;-73
2023/07/19 02:08:43;;;;;;;8.98;2.20;;;;;;;;;;5090986;27;20412;-74
2023/07/19 02:11:10;;;;;;;7.78;2.47;;;;;;;;;;5099402;27;20054;-73
2023/07/19 02:13:38;;;;;;;6.55;2.40;;;;;;;;;;5118854;27;20508;-73
2023/07/19 02:16:07;;;;;;;4.50;2.30;;;;;;;;;;5120411;27;20051;-73
2023/07/19 02:18:34;;;;;;;3.88;2.20;;;;;;;;;;5123730;27;20048;-73
2023/07/19 02:21:02;;;;;;;9.98;2.45;;;;;;;;;;5111416;27;20048;-73
2023/07/19 02:23:29;;;;;;;4.18;2.30;;;;;;;;;;5119697;27;20048;-72
2023/07/19 02:25:56;;;;;;;4.85;2.20;;;;;;;;;;5121379;27;20058;-73
2023/07/19 02:28:24;;;;;;;5.57;2.10;;;;;;;;;;5120218;27;20047;-73
2023/07/19 02:30:51;;;;;;;4.15;2.03;;;;;;;;;;5116275;27;20052;-73
2023/07/19 02:33:18;;;;;;;5.55;2.40;;;;;;;;;;5114081;27;20815;-74
2023/07/19 02:35:45;;;;;;;4.72;2.13;;;;;;;;;;5116916;27;20590;-73
2023/07/19 02:38:13;;;;;;;4.68;2.10;;;;;;;;;;5115999;27;20201;-73
2023/07/19 02:40:40;;;;;;;8.68;2.78;;;;;;;;;;5119926;27;20148;-73
2023/07/19 02:43:07;;;;;;;4.65;2.65;;;;;;;;;;5112607;27;20070;-73
2023/07/19 02:45:35;;;;;;;10.85;2.55;;;;;;;;;;5121250;27;20044;-73
2023/07/19 02:48:02;;;;;;;6.28;2.38;;;;;;;;;;5121269;27;20423;-73
2023/07/19 02:50:30;;;;;;;6.10;2.65;;;;;;;;;;5119798;27;20048;-73
2023/07/19 02:52:57;;;;;;;4.10;2.38;;;;;;;;;;5120262;27;20051;-73
2023/07/19 02:55:24;;;;;;;6.22;2.28;;;;;;;;;;5114057;27;20056;-74
2023/07/19 02:57:53;;;;;;;5.88;2.30;;;;;;;;;;5118058;27;20044;-75
2023/07/19 03:00:20;;;;;;;5.18;2.70;;;;;;;;;;5116976;27;20094;-73
2023/07/19 03:02:53;;;;;;;6.82;2.88;;;;;;;;;;5102747;27;20175;-73
2023/07/19 03:05:21;;;;;;;5.07;2.50;;;;;;;;;;5099208;27;20052;-73
2023/07/19 03:07:49;;;;;;;4.57;2.40;;;;;;;;;;5097483;27;20149;-73
2023/07/19 03:10:16;;;;;;;4.03;2.80;;;;;;;;;;5097617;27;21355;-73
2023/07/19 03:12:44;;;;;;;3.70;2.70;;;;;;;;;;5099121;27;20904;-73
2023/07/19 03:15:11;;;;;;;7.20;3.00;;;;;;;;;;5104300;27;20044;-73
2023/07/19 03:17:39;;;;;;;7.82;3.00;;;;;;;;;;5114135;27;20044;-73
2023/07/19 03:20:07;;;;;;;3.92;2.65;;;;;;;;;;5099211;27;20043;-73
2023/07/19 03:22:34;;;;;;;5.72;2.88;;;;;;;;;;5120548;27;20057;-73
2023/07/19 03:25:01;;;;;;;7.95;3.38;;;;;;;;;;5117305;27;20052;-75
2023/07/19 03:27:28;;;;;;;5.88;3.10;;;;;;;;;;5112019;27;20052;-73
2023/07/19 03:29:55;;;;;;;6.88;3.00;;;;;;;;;;5110470;27;20051;-73
2023/07/19 03:32:22;;;;;;;7.15;3.42;;;;;;;;;;5112622;27;20170;-73
2023/07/19 03:34:50;;;;;;;11.68;3.70;;;;;;;;;;5117221;27;20050;-73
2023/07/19 03:37:17;;;;;;;7.68;3.28;;;;;;;;;;5120899;27;20517;-75
2023/07/19 03:39:44;;;;;;;12.93;3.80;;;;;;;;;;5118841;27;20607;-72
2023/07/19 03:42:11;;;;;;;7.50;3.75;;;;;;;;;;5119785;27;20048;-72
2023/07/19 03:44:38;;;;;;;9.32;4.00;;;;;;;;;;5116975;27;20051;-75
2023/07/19 03:47:06;;;;;;;11.07;3.95;;;;;;;;;;5121728;27;20143;-74
2023/07/19 03:49:33;;;;;;;10.07;3.70;;;;;;;;;;5114868;27;20052;-73
2023/07/19 03:52:00;;;;;;;6.93;3.85;;;;;;;;;;5110564;27;20048;-73
2023/07/19 03:54:27;;;;;;;5.65;3.75;;;;;;;;;;5121976;27;20048;-73
2023/07/19 03:56:55;;;;;;;7.60;3.65;;;;;;;;;;5118158;27;20578;-73
2023/07/19 03:59:22;;;;;;;7.55;3.38;;;;;;;;;;5109851;27;21098;-73
2023/07/19 04:01:49;;;;;;;9.27;3.42;;;;;;;;;;5097151;27;20052;-73
2023/07/19 04:04:16;;;;;;;8.10;3.92;;;;;;;;;;5099422;27;20052;-73
2023/07/19 04:06:43;;;;;;;7.45;3.90;;;;;;;;;;5100773;27;20417;-73
2023/07/19 04:09:11;;;;;;;8.23;3.60;;;;;;;;;;5100857;27;20721;-72
2023/07/19 04:11:38;;;;;;;7.45;3.28;;;;;;;;;;5101857;27;20132;-73
2023/07/19 04:14:05;;;;;;;6.90;3.80;;;;;;;;;;5099617;27;20054;-73
2023/07/19 04:16:33;;;;;;;5.43;3.42;;;;;;;;;;5099867;27;20856;-73
2023/07/19 04:19:00;;;;;;;9.55;3.70;;;;;;;;;;5101037;27;20448;-75
2023/07/19 04:21:27;;;;;;;12.05;3.45;;;;;;;;;;5123958;27;20698;-73
2023/07/19 04:23:55;;;;;;;8.48;3.17;;;;;;;;;;5121515;27;20107;-73
2023/07/19 04:26:25;;;;;;;8.20;3.40;;;;;;;;;;5128976;27;20086;-73
2023/07/19 04:28:52;;;;;;;8.00;4.15;;;;;;;;;;5119491;27;20064;-73
2023/07/19 04:31:20;;;;;;;7.82;3.75;;;;;;;;;;5122041;27;20044;-72
2023/07/19 04:33:47;;;;;;;7.53;3.50;;;;;;;;;;5117502;27;20854;-74
2023/07/19 04:36:15;;;;;;;8.95;3.72;;;;;;;;;;5124649;27;20052;-73
2023/07/19 04:38:42;;;;;;;6.70;3.28;;;;;;;;;;5121839;27;20090;-73
2023/07/19 04:41:10;;;;;;;8.38;3.10;;;;;;;;;;5129540;27;20555;-73
2023/07/19 04:43:37;;;;;;;5.47;3.20;;;;;;;;;;5119025;27;20049;-73
2023/07/19 04:46:04;;;;;;;7.47;3.38;;;;;;;;;;5120133;27;20097;-73
2023/07/19 04:48:32;;;;;;;7.13;3.67;;;;;;;;;;5124141;27;20082;-73
2023/07/19 04:51:00;;;;;;;7.18;3.40;;;;;;;;;;5122683;27;20052;-73
2023/07/19 04:53:27;;;;;;;6.97;3.85;;;;;;;;;;5121354;27;20437;-73
2023/07/19 04:55:55;;;;;;;10.07;3.63;;;;;;;;;;5096259;27;20068;-74
2023/07/19 04:58:22;;;;;;;7.25;3.60;;;;;;;;;;5083780;27;20089;-74
2023/07/19 05:00:49;;;;;;;4.72;2.67;;;;;;;;;;5133803;27;20138;-74
2023/07/19 05:03:16;;;;;;;6.47;2.83;;;;;;;;;;5131518;27;20413;-74
2023/07/19 05:05:44;;;;;;;8.70;2.83;;;;;;;;;;5116347;27;20102;-73
2023/07/19 05:08:11;;;;;;;4.60;2.50;;;;;;;;;;5120725;27;20040;-74
2023/07/19 05:10:38;;;;;;;5.72;2.83;;;;;;;;;;5113371;27;20040;-74
2023/07/19 05:13:05;;;;;;;6.05;2.95;;;;;;;;;;5114004;27;20076;-74
2023/07/19 05:15:33;;;;;;;7.65;2.72;;;;;;;;;;5120249;27;20497;-73
2023/07/19 05:18:00;;;;;;;7.03;3.22;;;;;;;;;;5128093;27;20558;-73
2023/07/19 05:20:29;;;;;;;4.97;2.60;;;;;;;;;;5122991;27;20537;-74
2023/07/19 05:22:59;;;;;;;7.60;3.33;;;;;;;;;;5121137;27;20109;-74
2023/07/19 05:25:26;;;;;;;6.78;3.15;;;;;;;;;;5120700;27;20051;-73
2023/07/19 05:27:53;;;;;;;6.30;2.92;;;;;;;;;;5133381;27;20140;-73
2023/07/19 05:30:21;;;;;;;11.50;3.20;;;;;;;;;;5097818;27;20142;-73
2023/07/19 05:32:48;;;;;;;8.63;3.10;;;;;;;;;;5130459;27;20393;-73
2023/07/19 05:35:16;;;;;;;11.00;3.45;;;;;;;;;;5119109;27;20492;-73
2023/07/19 05:37:43;;;;;;;10.80;3.47;;;;;;;;;;5127756;27;20142;-74
2023/07/19 05:40:10;;;;;;;9.35;3.67;;;;;;;;;;5117776;27;20083;-73
2023/07/19 05:42:37;;;;;;;6.47;3.15;;;;;;;;;;5117187;27;20142;-74
2023/07/19 05:45:05;;;;;;;11.07;4.30;;;;;;;;;;5116626;27;20055;-74
2023/07/19 05:47:32;;;;;;;6.05;2.97;;;;;;;;;;5121820;27;20054;-73
2023/07/19 05:50:00;;;;;;;7.72;3.40;;;;;;;;;;5102124;27;20059;-73
2023/07/19 05:52:28;;;;;;;7.45;3.50;;;;;;;;;;5094934;27;20055;-74
2023/07/19 05:54:56;;;;;;;10.85;3.63;;;;;;;;;;5111467;27;20040;-74
2023/07/19 05:57:23;;;;;;;8.27;3.58;;;;;;;;;;5115684;27;20044;-74
2023/07/19 05:59:50;;;;;;;6.65;3.13;;;;;;;;;;5115913;27;20876;-74
2023/07/19 06:02:19;;;;;;;7.43;3.53;;;;;;;;;;5117537;27;20052;-74
2023/07/19 06:04:47;;;;;;;9.93;3.70;;;;;;;;;;5118202;27;20131;-73
2023/07/19 06:07:15;;;;;;;10.40;3.65;;;;;;;;;;5114724;27;20051;-74
2023/07/19 06:09:42;;;;;;;7.65;3.72;;;;;;;;;;5118295;27;20056;-74
2023/07/19 06:12:10;;;;;;;7.65;3.83;;;;;;;;;;5120222;27;20051;-73
2023/07/19 06:14:37;;;;;;;10.05;3.60;;;;;;;;;;5113469;27;21123;-73
2023/07/19 06:17:05;;;;;;;6.70;3.20;;;;;;;;;;5117780;27;20067;-74
2023/07/19 06:19:32;;;;;;;9.45;3.55;;;;;;;;;;5118129;27;20554;-73
2023/07/19 06:22:00;;;;;;;7.43;3.40;;;;;;;;;;5117660;27;20050;-73
2023/07/19 06:24:27;;;;;;;8.25;3.00;;;;;;;;;;5122156;27;20477;-73
2023/07/19 06:26:55;;;;;;;10.52;3.30;;;;;;;;;;5114847;27;20531;-73
2023/07/19 06:29:23;;;;;;;6.35;2.75;;;;;;;;;;5119584;27;20059;-73
2023/07/19 06:31:50;;;;;;;6.30;3.05;;;;;;;;;;5114460;27;20051;-74
2023/07/19 06:34:17;;;;;;;9.57;3.45;;;;;;;;;;5118416;27;20138;-75
2023/07/19 06:36:45;;;;;;;8.13;2.83;;;;;;;;;;5117013;27;20055;-74
2023/07/19 06:39:12;;;;;;;5.70;2.28;;;;;;;;;;5114010;27;20035;-74
2023/07/19 06:41:40;;;;;;;7.28;2.33;;;;;;;;;;5120434;27;20095;-73
2023/07/19 06:44:07;;;;;;;6.15;2.63;;;;;;;;;;5115338;27;20512;-74
2023/07/19 06:46:34;;;;;;;6.05;2.60;;;;;;;;;;5113556;27;20048;-73
2023/07/19 06:49:01;;;;;;;4.88;2.03;;;;;;;;;;5082750;27;20148;-73
2023/07/19 06:51:29;;;;;;;6.45;2.45;;;;;;;;;;5097408;27;20807;-73
2023/07/19 06:53:56;;;;;;;6.53;2.53;;;;;;;;;;5111186;27;20048;-73
2023/07/19 06:56:40;;;;;;;5.47;2.30;;;;;;;;;;5122264;27;20121;-74
2023/07/19 06:59:07;;;;;;;9.40;2.30;;;;;;;;;;5115384;27;20133;-73
2023/07/19 07:01:35;;;;;;;5.63;1.77;;;;;;;;;;5112605;27;20054;-74
2023/07/19 07:04:03;;;;;;;8.23;1.90;;;;;;;;;;5113389;27;20075;-74
2023/07/19 07:06:30;;;;;;;5.72;2.33;;;;;;;;;;5117795;27;20458;-74
2023/07/19 07:08:57;;;;;;;6.13;2.20;;;;;;;;;;5115729;27;20048;-73
2023/07/19 07:11:25;;;;;;;5.45;1.67;;;;;;;;;;5114438;27;20047;-74
2023/07/19 07:13:52;;;;;;;5.43;1.73;;;;;;;;;;5122780;27;20091;-73
2023/07/19 07:16:19;;;;;;;4.15;1.60;;;;;;;;;;5118432;27;20062;-74
2023/07/19 07:18:46;;;;;;;7.95;1.73;;;;;;;;;;5116421;27;20048;-74
2023/07/19 07:21:14;;;;;;;4.35;1.70;;;;;;;;;;5117266;27;20124;-74
2023/07/19 07:23:42;;;;;;;5.18;1.58;;;;;;;;;;5115902;27;20156;-74
2023/07/19 07:26:09;;;;;;;4.90;1.60;;;;;;;;;;5117691;27;20048;-74
2023/07/19 07:28:36;;;;;;;9.45;1.80;;;;;;;;;;5111872;27;20530;-73
2023/07/19 07:31:08;;;;;;;3.97;1.77;;;;;;;;;;5120010;27;20194;-74
2023/07/19 07:33:36;;;;;;;6.25;1.88;;;;;;;;;;5119435;27;20048;-73
2023/07/19 07:36:03;;;;;;;4.78;2.17;;;;;;;;;;5121815;27;20047;-73
2023/07/19 07:38:31;;;;;;;5.70;1.75;;;;;;;;;;5119577;27;20526;-73
2023/07/19 07:41:11;;;;;;;9.25;2.08;;;;;;;;;;5123384;27;20050;-74
2023/07/19 07:43:38;;;;;;;7.03;1.95;;;;;;;;;;5112880;27;20055;-74
2023/07/19 07:46:05;;;;;;;7.80;2.15;;;;;;;;;;5108147;27;20409;-74
2023/07/19 07:48:33;;;;;;;8.77;2.45;;;;;;;;;;5117244;27;20509;-73
2023/07/19 07:51:00;;;;;;;4.95;2.20;;;;;;;;;;5122851;27;20047;-74
2023/07/19 07:53:27;;;;;;;4.88;1.73;;;;;;;;;;5120599;27;20048;-74
2023/07/19 07:55:54;;;;;;;8.35;2.42;;;;;;;;;;5124374;27;20052;-74
2023/07/19 07:58:22;;;;;;;7.68;2.38;;;;;;;;;;5124649;27;20048;-74
2023/07/19 08:00:49;;;;;;;10.50;2.80;;;;;;;;;;5122189;27;20135;-73
2023/07/19 08:03:16;;;;;;;6.53;2.13;;;;;;;;;;5120498;27;20176;-74
2023/07/19 08:05:43;;;;;;;7.78;2.40;;;;;;;;;;5120749;27;20097;-74
2023/07/19 08:08:11;;;;;;;6.40;2.67;;;;;;;;;;5115786;27;20048;-75
2023/07/19 08:10:39;;;;;;;6.63;2.92;;;;;;;;;;5118746;27;20151;-74
2023/07/19 08:13:07;;;;;;;9.82;2.95;;;;;;;;;;5119456;27;20094;-74
2023/07/19 08:15:34;;;;;;;13.30;3.10;;;;;;;;;;5122172;27;20515;-74
2023/07/19 08:18:01;;;;;;;7.45;2.85;;;;;;;;;;5118413;27;20052;-74
2023/07/19 08:20:29;;;;;;;16.65;5.22;;;;;;;;;;5112449;27;20048;-74
2023/07/19 08:22:56;;;;;;;19.05;4.07;;;;;;;;;;5118969;27;20044;-74
2023/07/19 08:25:27;;;;;;;12.10;2.70;;;;;;;;;;5116907;27;20056;-74
2023/07/19 08:27:55;;;;;;;7.10;2.50;;;;;;;;;;5123769;27;20044;-74
2023/07/19 08:30:23;;;;;;;8.10;2.40;;;;;;;;;;5115896;27;20056;-74
2023/07/19 08:32:50;;;;;;;7.97;2.95;;;;;;;;;;5116179;27;20520;-74
2023/07/19 08:35:18;;;;;;;5.88;2.78;;;;;;;;;;5117538;27;20050;-74
2023/07/19 08:37:46;;;;;;;7.85;2.60;;;;;;;;;;5119103;27;20647;-74
2023/07/19 08:40:14;;;;;;;7.22;2.63;;;;;;;;;;5105216;27;20067;-74
2023/07/19 08:42:42;;;;;;;13.00;3.20;;;;;;;;;;5102413;27;20047;-74
2023/07/19 08:45:11;;;;;;;7.05;2.80;;;;;;;;;;5121295;27;20051;-73
2023/07/19 08:47:39;;;;;;;5.40;2.58;;;;;;;;;;5117913;27;20058;-74
2023/07/19 08:50:07;;;;;;;10.13;2.25;;;;;;;;;;5119698;27;21076;-73
2023/07/19 08:52:35;;;;;;;6.07;2.78;;;;;;;;;;5122257;27;20569;-73
2023/07/19 08:55:03;;;;;;;6.00;2.25;;;;;;;;;;5120900;27;20523;-73
2023/07/19 08:57:30;;;;;;;11.63;2.80;;;;;;;;;;5118558;27;20098;-74
2023/07/19 08:59:57;;;;;;;8.30;2.55;;;;;;;;;;5119324;27;20088;-73
2023/07/19 09:02:25;;;;;;;7.80;2.70;;;;;;;;;;5120100;27;20095;-74
2023/07/19 09:05:11;;;;;;;5.25;2.50;;;;;;;;;;5121907;27;20121;-73
2023/07/19 09:07:40;;;;;;;5.22;2.33;;;;;;;;;;5117355;27;21385;-73
2023/07/19 09:10:08;;;;;;;8.27;2.30;;;;;;;;;;5124289;27;20504;-73
2023/07/19 09:12:38;;;;;;;6.65;2.03;;;;;;;;;;5119268;27;20144;-74
2023/07/19 09:15:09;;;;;;;4.28;1.92;;;;;;;;;;5118753;27;20055;-73
2023/07/19 09:17:46;;;;;;;6.22;2.50;;;;;;;;;;5117662;27;20047;-73
2023/07/19 09:20:14;;;;;;;6.38;1.85;;;;;;;;;;5118729;27;20142;-73
2023/07/19 09:22:42;;;;;;;4.70;2.10;;;;;;;;;;5120733;27;20117;-74
2023/07/19 09:25:12;;;;;;;8.82;2.35;;;;;;;;;;5117210;27;20048;-67
2023/07/19 09:27:43;;;;;;;5.05;2.15;;;;;;;;;;5119722;27;20048;-68
2023/07/19 09:30:14;;;;;;;8.73;2.30;;;;;;;;;;5123472;27;20058;-68
2023/07/19 09:32:41;;;;;;;6.18;2.22;;;;;;;;;;5122307;27;20815;-68
2023/07/19 09:35:09;;;;;;;6.85;2.30;;;;;;;;;;5116385;27;20048;-68
2023/07/19 09:37:36;;;;;;;8.35;2.08;;;;;;;;;;5089531;27;20148;-68
2023/07/19 09:40:04;;;;;;;8.07;2.33;;;;;;;;;;5093095;27;20086;-68
2023/07/19 09:42:36;;;;;;;5.47;2.10;;;;;;;;;;5109487;27;20619;-68
2023/07/19 09:45:06;;;;;;;8.07;2.55;;;;;;;;;;5118588;27;20051;-68
2023/07/19 09:47:34;;;;;;;6.25;2.05;;;;;;;;;;5120325;27;20055;-68
2023/07/19 09:50:04;;;;;;;9.80;2.28;;;;;;;;;;5123207;27;20055;-68
2023/07/19 09:52:34;;;;;;;10.00;2.22;;;;;;;;;;5119678;27;20172;-68
2023/07/19 09:55:02;;;;;;;5.07;2.50;;;;;;;;;;5117769;27;20052;-68
2023/07/19 09:57:31;;;;;;;7.53;2.50;;;;;;;;;;5114964;27;20052;-68
2023/07/19 09:59:59;;;;;;;6.18;2.20;;;;;;;;;;5120247;27;20143;-68
2023/07/19 10:02:26;;;;;;;6.32;2.15;;;;;;;;;;5104742;27;20051;-68
2023/07/19 10:04:54;;;;;;;8.52;2.28;;;;;;;;;;5120064;27;20139;-68
2023/07/19 10:07:22;;;;;;;6.20;2.53;;;;;;;;;;5103853;27;20899;-68
2023/07/19 10:10:01;;;;;;;6.40;2.00;;;;;;;;;;5121231;27;21346;-68
2023/07/19 10:12:28;;;;;;;8.25;2.20;;;;;;;;;;5118815;27;20051;-68
2023/07/19 10:15:06;;;;;;;6.35;2.35;;;;;;;;;;5120403;27;20486;-68
2023/07/19 10:17:40;;;;;;;5.07;2.13;;;;;;;;;;5120279;27;20091;-69
2023/07/19 10:20:14;;;;;;;6.07;2.38;;;;;;;;;;5104021;27;20516;-69
2023/07/19 10:22:57;;;;;;;6.20;2.08;;;;;;;;;;5119035;27;20048;-68
2023/07/19 10:25:28;;;;;;;8.10;2.60;;;;;;;;;;5118568;27;20040;-67
2023/07/19 10:28:00;;;;;;;6.50;2.28;;;;;;;;;;5118039;27;20052;-68
2023/07/19 10:30:47;;;;;;;8.25;2.47;;;;;;;;;;5116603;27;20616;-67
2023/07/19 10:33:15;;;;;;;8.68;2.47;;;;;;;;;;5102133;27;20051;-69
2023/07/19 10:35:43;;;;;;;3.70;2.20;;;;;;;;;;5093589;27;20962;-68
2023/07/19 10:38:14;;;;;;;6.30;2.10;;;;;;;;;;5092024;27;20096;-69
2023/07/19 10:40:45;;;;;;;7.07;2.60;;;;;;;;;;5110707;27;20125;-69
2023/07/19 10:43:13;;;;;;;7.45;2.40;;;;;;;;;;5114783;27;20523;-68
2023/07/19 10:45:41;;;;;;;7.63;2.70;;;;;;;;;;5116172;27;20074;-68
2023/07/19 10:48:09;;;;;;;9.70;2.80;;;;;;;;;;5115013;27;20051;-68
2023/07/19 10:50:38;;;;;;;7.25;2.60;;;;;;;;;;5111133;27;20051;-68
2023/07/19 10:53:06;;;;;;;8.05;3.05;;;;;;;;;;5111081;27;20520;-68
2023/07/19 10:55:33;;;;;;;11.00;3.10;;;;;;;;;;5110367;27;20048;-68
2023/07/19 10:58:04;;;;;;;7.05;3.00;;;;;;;;;;5111677;27;20055;-68
2023/07/19 11:00:34;;;;;;;7.65;2.60;;;;;;;;;;5105208;27;20098;-68
2023/07/19 11:03:01;;;;;;;6.57;2.65;;;;;;;;;;5107065;27;20140;-68
2023/07/19 11:05:29;;;;;;;8.52;2.65;;;;;;;;;;5110216;27;20075;-67
2023/07/19 11:07:56;;;;;;;4.78;2.20;;;;;;;;;;5110402;27;20144;-68
2023/07/19 11:10:28;;;;;;;6.22;2.38;;;;;;;;;;5109386;27;20040;-68
2023/07/19 11:12:56;;;;;;;5.87;2.57;;;;;;;;;;5116689;27;20122;-68
2023/07/19 11:15:27;;;;;;;4.72;2.05;;;;;;;;;;5117650;27;20315;-68
2023/07/19 11:17:57;;;;;;;10.93;2.40;;;;;;;;;;5116527;27;20079;-68
2023/07/19 11:20:30;;;;;;;7.35;2.75;;;;;;;;;;5125182;27;20158;-68
2023/07/19 11:22:59;;;;;;;;;;;;;;;;;;5124645;27;20044;-68
2023/07/19 11:25:26;;;;;;;5.75;2.42;;;;;;;;;;5120749;27;43964;-68
2023/07/19 11:27:53;;;;;;;10.05;2.58;;;;;;;;;;5124012;27;20105;-69
2023/07/19 11:30:22;;;;;;;5.90;2.30;;;;;;;;;;5075432;27;20641;-69
2023/07/19 11:33:01;;;;;;;6.80;2.40;;;;;;;;;;5070765;27;20263;-69
2023/07/19 11:35:29;;;;;;;7.57;2.33;;;;;;;;;;5099118;27;20149;-68
2023/07/19 11:37:57;;;;;;;7.93;2.10;;;;;;;;;;5123447;27;20078;-68
2023/07/19 11:40:24;;;;;;;14.02;2.50;;;;;;;;;;5119875;27;20501;-68
2023/07/19 11:42:57;;;;;;;5.43;2.10;;;;;;;;;;5121677;27;20048;-68
2023/07/19 11:45:26;;;;;;;5.68;1.98;;;;;;;;;;5113952;27;20058;-68
2023/07/19 11:47:58;;;;;;;7.22;2.38;;;;;;;;;;5121347;27;20046;-68
2023/07/19 11:50:26;;;;;;;9.32;2.63;;;;;;;;;;5122312;27;20508;-68
2023/07/19 11:53:01;;;;;;;5.72;2.30;;;;;;;;;;5118995;27;20075;-68
2023/07/19 11:55:29;;;;;;;7.93;2.22;;;;;;;;;;5124192;27;20087;-69
2023/07/19 11:58:02;;;;;;;5.03;1.80;;;;;;;;;;5119998;27;20062;-68
2023/07/19 12:00:31;;;;;;;5.65;2.08;;;;;;;;;;5113426;27;20079;-68
2023/07/19 12:02:58;;;;;;;6.72;2.10;;;;;;;;;;5123400;27;20047;-68
2023/07/19 12:05:26;;;;;;;4.75;1.95;;;;;;;;;;5115447;27;20057;-69
2023/07/19 12:07:54;;;;;;;5.22;1.90;;;;;;;;;;5121914;27;20045;-68
2023/07/19 12:10:22;;;;;;;5.22;1.83;;;;;;;;;;5124108;27;20101;-69
2023/07/19 12:12:50;;;;;;;4.43;1.77;;;;;;;;;;5121424;27;20098;-69
2023/07/19 12:15:18;;;;;;;7.63;1.92;;;;;;;;;;5120355;27;20063;-68
2023/07/19 12:17:45;;;;;;;6.82;2.08;;;;;;;;;;5112269;27;20660;-68
2023/07/19 12:20:12;;;;;;;6.90;2.20;;;;;;;;;;5116539;27;20055;-68
2023/07/19 12:22:45;;;;;;;6.03;2.15;;;;;;;;;;5119322;27;20079;-69
2023/07/19 12:25:12;;;;;;;10.70;2.05;;;;;;;;;;5103565;27;20828;-69
2023/07/19 12:27:41;;;;;;;5.65;1.70;;;;;;;;;;5091332;27;20522;-69
2023/07/19 12:30:10;;;;;;;9.88;2.60;;;;;;;;;;5091416;27;20504;-68
2023/07/19 12:32:38;;;;;;;10.75;2.38;;;;;;;;;;5091019;27;20096;-69
2023/07/19 12:35:06;;;;;;;9.43;2.50;;;;;;;;;;5091211;27;20054;-69
2023/07/19 12:37:33;;;;;;;13.32;2.40;;;;;;;;;;5089202;27;20143;-68
2023/07/19 12:40:00;;;;;;;23.48;2.92;;;;;;;;;;5091990;27;20048;-70
2023/07/19 12:42:29;;;;;;;17.33;3.00;;;;;;;;;;5091052;27;20205;-69
2023/07/19 12:44:56;;;;;;;5.25;1.80;;;;;;;;;;5090535;27;20605;-69
2023/07/19 12:47:23;;;;;;;3.50;1.77;;;;;;;;;;5090315;27;20044;-68
2023/07/19 12:49:50;;;;;;;5.53;1.75;;;;;;;;;;5089705;27;20219;-69
2023/07/19 12:52:19;;;;;;;6.32;1.80;;;;;;;;;;5091342;27;20282;-69
2023/07/19 12:54:47;;;;;;;5.40;1.80;;;;;;;;;;5119435;27;20044;-69
2023/07/19 12:57:14;;;;;;;7.03;1.92;;;;;;;;;;5114807;27;20056;-68
2023/07/19 12:59:41;;;;;;;5.72;1.65;;;;;;;;;;5118687;27;20158;-69
2023/07/19 13:02:09;;;;;;;3.85;1.63;;;;;;;;;;5098372;27;20048;-68
2023/07/19 13:04:37;;;;;;;5.72;1.77;;;;;;;;;;5114676;27;20055;-69
2023/07/19 13:07:04;;;;;;;6.18;2.00;;;;;;;;;;5116098;27;20048;-68
2023/07/19 13:09:32;;;;;;;6.97;1.70;;;;;;;;;;5119320;27;20101;-68
2023/07/19 13:11:59;;;;;;;3.38;1.42;;;;;;;;;;5121372;27;20058;-68
2023/07/19 13:14:27;;;;;;;3.28;1.45;;;;;;;;;;5115485;27;20051;-68
2023/07/19 13:16:54;;;;;;;5.00;1.88;;;;;;;;;;5108850;27;20048;-68
2023/07/19 13:19:42;;;;;;;4.65;1.70;;;;;;;;;;5114165;27;20058;-67
2023/07/19 13:22:09;;;;;;;4.80;1.65;;;;;;;;;;5078187;27;20913;-68
2023/07/19 13:24:36;;;;;;;4.88;1.67;;;;;;;;;;5092266;27;20044;-68
2023/07/19 13:27:06;;;;;;;2.95;1.55;;;;;;;;;;5090085;27;20141;-68
2023/07/19 13:29:33;;;;;;;7.85;1.73;;;;;;;;;;5091825;27;20765;-68
2023/07/19 13:32:04;;;;;;;4.70;1.38;;;;;;;;;;5102776;27;20047;-68
2023/07/19 13:34:34;;;;;;;3.63;1.50;;;;;;;;;;5120070;27;20512;-68
2023/07/19 13:37:01;;;;;;;7.97;1.42;;;;;;;;;;5115782;27;20248;-68
2023/07/19 13:39:33;;;;;;;5.32;1.60;;;;;;;;;;5117898;27;20079;-68
2023/07/19 13:42:03;;;;;;;4.82;1.58;;;;;;;;;;5113394;27;20176;-68
2023/07/19 13:44:31;;;;;;;4.38;1.58;;;;;;;;;;5119133;27;20606;-68
2023/07/19 13:46:58;;;;;;;3.80;1.45;;;;;;;;;;5116437;27;20709;-68
2023/07/19 13:49:27;;;;;;;3.85;1.58;;;;;;;;;;5117873;27;20198;-68
2023/07/19 13:51:55;;;;;;;3.10;1.42;;;;;;;;;;5118585;27;20066;-68
2023/07/19 13:54:23;;;;;;;4.78;1.50;;;;;;;;;;5115921;27;21470;-68
2023/07/19 13:56:50;;;;;;;8.82;1.83;;;;;;;;;;5118439;27;20885;-68
2023/07/19 13:59:18;;;;;;;5.60;1.63;;;;;;;;;;5117826;27;20056;-68
2023/07/19 14:01:47;;;;;;;5.18;1.40;;;;;;;;;;5117052;27;20044;-68
2023/07/19 14:04:14;;;;;;;4.05;1.23;;;;;;;;;;5110920;27;20043;-68
2023/07/19 14:06:42;;;;;;;7.07;1.42;;;;;;;;;;5117403;27;20084;-68
2023/07/19 14:09:10;;;;;;;3.75;1.42;;;;;;;;;;5115900;27;20050;-68
2023/07/19 14:11:37;;;;;;;4.38;1.35;;;;;;;;;;5120272;27;20103;-68
2023/07/19 14:14:04;;;;;;;5.30;1.45;;;;;;;;;;5115361;27;20048;-68
2023/07/19 14:16:31;;;;;;;4.25;1.30;;;;;;;;;;5113327;27;20054;-68
2023/07/19 14:19:01;;;;;;;1.63;1.20;;;;;;;;;;5092180;27;20477;-68
2023/07/19 14:21:28;;;;;;;3.72;1.70;;;;;;;;;;5110532;27;20388;-68
2023/07/19 14:23:55;;;;;;;6.10;1.70;;;;;;;;;;5115459;27;20205;-68
2023/07/19 14:26:23;;;;;;;3.65;1.60;;;;;;;;;;5114879;27;20056;-68
2023/07/19 14:28:52;;;;;;;5.72;1.60;;;;;;;;;;5116223;27;20046;-68
2023/07/19 14:31:19;;;;;;;4.95;1.50;;;;;;;;;;5125028;27;20054;-68
2023/07/19 14:33:49;;;;;;;2.20;1.42;;;;;;;;;;5114420;27;20059;-68
2023/07/19 14:36:16;;;;;;;3.25;1.48;;;;;;;;;;5113519;27;20048;-68
2023/07/19 14:38:43;;;;;;;3.55;1.50;;;;;;;;;;5122678;27;20050;-68
2023/07/19 14:41:11;;;;;;;3.75;1.63;;;;;;;;;;5119911;27;20043;-67
2023/07/19 14:43:39;;;;;;;4.05;1.55;;;;;;;;;;5121249;27;20101;-68
2023/07/19 14:46:06;;;;;;;3.75;1.63;;;;;;;;;;5116916;27;20154;-68
2023/07/19 14:48:33;;;;;;;4.43;1.40;;;;;;;;;;5113655;27;20051;-68